Mahajanga, Madagascar
Current Conditions -  °F | °C
As of 5:00 PM on Saturday 22 Nov 2014 (Local Time) from FMNM Reporting Station
Scattered Clouds Scattered Clouds  
Wind Chill: 84°   Ceiling: Unl
Heat Index: 91°   Visibility: 6mi
Dew Point: 73°   Wind: 12mph
Humidity: 70%   Direction: 300°WNW
Pressure: 29.83"   Gusts: NA
Location:  15.72°S, 46.31°E
Report Text: FMNM 221400Z 30010KT 9999 FEW020CB SCT230 29/23 Q1010 NOSIG
Loading
Personal Weather Stations






























Interactive Weather Map New forecast layout! Learn more

10-Day Weather Forecast

Advertisements
Track Severe Weather on mobile